Alle Angaben ohne Gewähr!
Bitte informieren Sie sich zusätzlich über offizielle Wetter-Stellen wie z.B. http://www.flug-wetter.at.

L O X Z

L O W K


LOWK 180420Z AUTO VRB01KT 7000 FEW004 BKN008 04/03 Q1020
LOWK 180350Z AUTO VRB02KT 6000 FEW003 SCT006 BKN010 04/03 Q1020
LOWK 180320Z AUTO VRB02KT 6000 FEW007 BKN010 04/03 Q1020
LOWK 180250Z AUTO VRB01KT 5000 BR FEW005 SCT007 BKN011 04/03 Q1021

TAF LOWK 172315Z 1800/1824 VRB02KT 6000 SCT007 BKN020 TX08/1815Z TN00/1824Z
  TEMPO 1800/1809 3000 BR SCT004 BKN006
  PROB40
  TEMPO 1802/1808 0300 FG OVC002
  BECMG 1809/1811 9999 FEW010 SCT300
  BECMG 1820/1823 4000 BR FEW004 BKN250

L O W G


LOWG 180420Z AUTO VRB02KT 3000 BR FEW001 BKN060 04/03 Q1020
LOWG 180350Z AUTO VRB01KT 4400 BR SCT001 BKN060 04/03 Q1020
LOWG 180320Z AUTO VRB02KT 4400 BR SCT001 BKN060 04/03 Q1020
LOWG 180250Z AUTO VRB02KT 4300 BR BKN001 04/03 Q1020

TAF LOWG 172315Z 1800/1824 VRB02KT 5000 BR SCT005 BKN020 TX09/1812Z TNM00/1824Z
  TEMPO 1800/1809 2000 BCFG BKN004
  PROB40
  TEMPO 1800/1808 0300 FG OVC002
  BECMG 1809/1811 9999 FEW030 SCT300
  BECMG 1815/1817 VRB02KT 4000 BR FEW020 BKN250
  TEMPO 1820/1824 0700 BCFG